createdAt,value
2022-09-28T00:01:44.598Z,21.23
2022-09-28T00:04:47.401Z,21.24
2022-09-28T00:07:50.078Z,21.27
2022-09-28T00:10:57.400Z,21.20
2022-09-28T00:14:02.480Z,21.28
2022-09-28T00:17:05.182Z,21.23
2022-09-28T00:20:08.141Z,21.27
2022-09-28T00:23:10.784Z,21.22
2022-09-28T00:26:14.856Z,21.12
2022-09-28T00:29:19.478Z,21.13
2022-09-28T00:32:24.658Z,21.19
2022-09-28T00:35:27.363Z,21.29
2022-09-28T00:38:30.490Z,21.33
2022-09-28T00:41:35.017Z,21.40
2022-09-28T00:44:43.261Z,21.28
2022-09-28T00:47:49.837Z,21.25
2022-09-28T00:50:52.796Z,21.36
2022-09-28T00:53:56.175Z,21.32
2022-09-28T00:57:01.215Z,21.29
2022-09-28T01:00:04.578Z,21.32
2022-09-28T01:03:07.711Z,21.36
2022-09-28T01:06:10.509Z,21.19
2022-09-28T01:09:13.644Z,21.36
2022-09-28T01:12:17.884Z,21.30
2022-09-28T01:15:21.948Z,21.28
2022-09-28T01:18:30.146Z,21.24
2022-09-28T01:21:38.507Z,21.28
2022-09-28T01:24:43.261Z,21.20
2022-09-28T01:27:50.052Z,21.12
2022-09-28T01:30:57.232Z,21.07
2022-09-28T01:34:02.111Z,21.23
2022-09-28T01:37:07.234Z,21.18
2022-09-28T01:40:11.431Z,21.30
2022-09-28T01:43:21.077Z,21.18
2022-09-28T01:46:26.898Z,21.21
2022-09-28T01:49:34.344Z,21.26
2022-09-28T01:52:41.012Z,21.15
2022-09-28T01:55:45.940Z,21.24
2022-09-28T01:58:51.807Z,21.31
2022-09-28T02:01:56.632Z,21.22
2022-09-28T02:05:00.937Z,21.07
2022-09-28T02:08:06.797Z,21.26
2022-09-28T02:11:12.362Z,21.24
2022-09-28T02:14:19.769Z,21.30
2022-09-28T02:17:25.394Z,21.21
2022-09-28T02:20:30.412Z,21.04
2022-09-28T02:23:36.333Z,21.26
2022-09-28T02:26:42.012Z,21.27
2022-09-28T02:29:46.075Z,21.28
2022-09-28T02:32:51.831Z,21.18
2022-09-28T02:35:56.659Z,20.90
2022-09-28T02:39:01.269Z,20.93
2022-09-28T02:42:17.256Z,20.85
2022-09-28T02:45:28.705Z,20.88
2022-09-28T02:48:43.894Z,20.83
2022-09-28T02:51:51.273Z,20.97
2022-09-28T02:55:02.784Z,20.75
2022-09-28T02:58:14.129Z,20.96
2022-09-28T03:01:21.499Z,21.05
2022-09-28T03:04:30.046Z,21.04
2022-09-28T03:07:35.326Z,21.18
2022-09-28T03:10:39.998Z,21.19
2022-09-28T03:13:43.352Z,21.41
2022-09-28T03:16:47.700Z,21.45
2022-09-28T03:19:50.348Z,21.36
2022-09-28T03:23:19.680Z,21.36
2022-09-28T03:26:16.928Z,21.29
2022-09-28T03:29:20.507Z,21.18
2022-09-28T03:32:24.536Z,21.13
2022-09-28T03:35:27.274Z,21.22
2022-09-28T03:38:30.010Z,21.09
2022-09-28T03:41:32.749Z,21.06
2022-09-28T03:44:35.535Z,21.10
2022-09-28T03:47:39.612Z,21.14
2022-09-28T03:50:42.305Z,21.12
2022-09-28T03:53:45.015Z,20.76
2022-09-28T03:56:47.780Z,20.92
2022-09-28T03:59:50.443Z,21.16
2022-09-28T04:02:54.760Z,21.17
2022-09-28T04:05:57.493Z,21.19
2022-09-28T04:09:00.228Z,21.20
2022-09-28T04:12:04.516Z,21.15
2022-09-28T04:15:07.856Z,20.91
2022-09-28T04:18:12.367Z,20.99
2022-09-28T04:21:16.837Z,20.97
2022-09-28T04:24:20.332Z,20.94
2022-09-28T04:27:40.557Z,21.00
2022-09-28T04:30:43.219Z,21.12
2022-09-28T04:33:47.415Z,21.02
2022-09-28T04:36:50.494Z,20.83
2022-09-28T04:39:53.114Z,20.94
2022-09-28T04:42:56.184Z,21.00
2022-09-28T04:45:59.782Z,20.97
2022-09-28T04:49:04.515Z,21.07
2022-09-28T04:52:07.421Z,21.00
2022-09-28T04:55:12.580Z,21.11
2022-09-28T04:58:15.301Z,21.23
2022-09-28T05:01:19.930Z,21.02
2022-09-28T05:04:26.121Z,21.13
2022-09-28T05:07:28.978Z,21.18
2022-09-28T05:10:31.840Z,21.16
2022-09-28T05:13:35.756Z,21.29
2022-09-28T05:16:38.534Z,21.26
2022-09-28T05:19:43.087Z,21.30
2022-09-28T05:22:46.435Z,21.17
2022-09-28T05:25:49.050Z,21.10
2022-09-28T05:28:51.985Z,21.12
2022-09-28T05:31:54.741Z,21.13
2022-09-28T05:35:01.878Z,21.17
2022-09-28T05:38:05.296Z,21.13
2022-09-28T05:41:08.062Z,21.09
2022-09-28T05:44:11.696Z,21.10
2022-09-28T05:47:14.418Z,21.24
2022-09-28T05:50:18.676Z,21.34
2022-09-28T05:53:21.349Z,21.38
2022-09-28T05:56:24.066Z,21.43
2022-09-28T05:59:26.695Z,21.42
2022-09-28T06:02:29.441Z,21.41
2022-09-28T06:05:36.178Z,21.30
2022-09-28T06:08:42.922Z,21.40
2022-09-28T06:11:45.635Z,21.20
2022-09-28T06:14:49.236Z,21.37
2022-09-28T06:17:56.641Z,21.19
2022-09-28T06:21:01.098Z,21.25
2022-09-28T06:24:04.261Z,21.13
2022-09-28T06:27:06.939Z,21.47
2022-09-28T06:30:10.005Z,21.53
2022-09-28T06:33:13.855Z,21.64
2022-09-28T06:36:18.301Z,21.74
2022-09-28T06:39:21.265Z,21.81
2022-09-28T06:42:23.971Z,21.69
2022-09-28T06:45:27.076Z,21.64
2022-09-28T06:48:29.751Z,21.57
2022-09-28T06:51:33.753Z,21.61
2022-09-28T06:54:36.449Z,21.69
2022-09-28T06:57:39.079Z,21.50
2022-09-28T07:00:42.141Z,21.62
2022-09-28T07:03:45.803Z,21.65
2022-09-28T07:06:50.907Z,21.76
2022-09-28T07:09:55.526Z,21.60
2022-09-28T07:13:02.655Z,21.73
2022-09-28T07:16:05.442Z,21.72
2022-09-28T07:19:08.158Z,21.76
2022-09-28T07:22:18.920Z,21.59
2022-09-28T07:25:22.908Z,21.62
2022-09-28T07:28:25.899Z,21.78
2022-09-28T07:31:29.694Z,21.56
2022-09-28T07:34:36.990Z,21.70
2022-09-28T07:37:41.075Z,21.67
2022-09-28T07:41:01.336Z,21.64
2022-09-28T07:44:06.567Z,21.66
2022-09-28T07:47:09.544Z,21.72
2022-09-28T07:50:12.352Z,21.75
2022-09-28T07:53:17.685Z,21.49
2022-09-28T07:56:20.470Z,21.33
2022-09-28T07:59:23.189Z,21.52
2022-09-28T08:02:25.970Z,21.49
2022-09-28T08:05:32.048Z,21.52
2022-09-28T08:08:36.223Z,21.60
2022-09-28T08:11:40.971Z,21.50
2022-09-28T08:14:43.679Z,21.47
2022-09-28T08:17:48.108Z,21.64
2022-09-28T08:21:10.599Z,21.61
2022-09-28T08:24:15.665Z,21.66
2022-09-28T08:27:19.462Z,21.51
2022-09-28T08:30:22.228Z,21.64
2022-09-28T08:33:24.991Z,21.71
2022-09-28T08:36:28.310Z,21.64
2022-09-28T08:39:32.873Z,21.82
2022-09-28T08:42:39.422Z,21.65
2022-09-28T08:45:42.152Z,21.49
2022-09-28T08:49:13.400Z,21.58
2022-09-28T08:52:20.693Z,21.68
2022-09-28T08:55:29.760Z,21.61
2022-09-28T08:58:34.582Z,21.53
2022-09-28T09:01:40.397Z,21.32
2022-09-28T09:04:43.545Z,21.58
2022-09-28T09:07:57.857Z,21.64
2022-09-28T09:11:04.277Z,21.69
2022-09-28T09:14:20.962Z,21.69
2022-09-28T09:17:32.255Z,21.63
2022-09-28T09:20:37.665Z,21.65
2022-09-28T09:23:48.548Z,21.76
2022-09-28T09:26:57.956Z,21.70
2022-09-28T09:30:06.600Z,21.72
2022-09-28T09:33:33.033Z,21.75
2022-09-28T09:36:41.331Z,21.92
2022-09-28T09:39:52.174Z,21.73
2022-09-28T09:43:06.282Z,21.76
2022-09-28T09:46:12.875Z,21.92
2022-09-28T09:49:17.345Z,21.76
2022-09-28T09:52:22.322Z,21.83
2022-09-28T09:55:29.901Z,21.41
2022-09-28T09:58:39.498Z,21.45
2022-09-28T10:01:42.800Z,21.54
2022-09-28T10:04:46.927Z,21.50
2022-09-28T10:07:53.896Z,21.61
2022-09-28T10:11:03.555Z,21.42
2022-09-28T10:14:08.270Z,21.66
2022-09-28T10:17:13.281Z,21.68
2022-09-28T10:20:17.053Z,21.69
2022-09-28T10:23:23.654Z,21.67
2022-09-28T10:26:29.517Z,21.57
2022-09-28T10:29:39.711Z,21.77
2022-09-28T10:32:44.351Z,21.95
2022-09-28T10:35:47.903Z,21.73
2022-09-28T10:38:50.610Z,21.83
2022-09-28T10:41:53.436Z,21.85
2022-09-28T10:45:04.612Z,21.75
2022-09-28T10:48:15.200Z,21.99
2022-09-28T10:51:18.416Z,21.85
2022-09-28T10:54:22.430Z,22.00
2022-09-28T10:57:28.030Z,21.59
2022-09-28T11:00:33.565Z,22.03
2022-09-28T11:03:43.396Z,21.98
2022-09-28T11:06:46.933Z,21.85
2022-09-28T11:09:50.341Z,18.22
2022-09-28T11:12:54.180Z,17.58
2022-09-28T11:15:58.661Z,17.83
2022-09-28T11:19:04.997Z,17.15
2022-09-28T11:22:21.326Z,17.63
2022-09-28T11:25:24.780Z,16.80
2022-09-28T11:28:30.509Z,20.23
2022-09-28T11:31:36.170Z,21.58
2022-09-28T11:34:58.768Z,21.81
2022-09-28T11:38:13.730Z,21.99
2022-09-28T11:41:27.486Z,22.07
2022-09-28T11:44:39.873Z,22.24
2022-09-28T11:47:50.248Z,22.41
2022-09-28T11:50:55.646Z,22.27
2022-09-28T11:54:00.767Z,22.35
2022-09-28T11:57:05.152Z,22.37
2022-09-28T12:00:10.061Z,22.21
2022-09-28T12:03:18.126Z,22.31
2022-09-28T12:06:24.877Z,22.34
2022-09-28T12:09:31.469Z,22.52
2022-09-28T12:12:36.490Z,22.62
2022-09-28T12:16:12.753Z,22.54
2022-09-28T12:19:12.879Z,22.63
2022-09-28T12:22:19.613Z,22.69
2022-09-28T12:25:24.217Z,22.70
2022-09-28T12:28:31.199Z,22.69
2022-09-28T12:31:36.159Z,22.75
2022-09-28T12:34:41.833Z,22.71
2022-09-28T12:37:56.615Z,22.73
2022-09-28T12:41:06.693Z,22.68
2022-09-28T12:44:18.348Z,22.59
2022-09-28T12:47:33.103Z,22.57
2022-09-28T12:50:45.561Z,22.49
2022-09-28T12:53:59.642Z,22.52
2022-09-28T12:57:09.710Z,22.60
2022-09-28T13:00:14.494Z,22.53
2022-09-28T13:03:31.744Z,22.54
2022-09-28T13:06:51.693Z,22.70
2022-09-28T13:10:01.359Z,22.56
2022-09-28T13:13:09.872Z,22.58
2022-09-28T13:16:17.723Z,22.57
2022-09-28T13:19:22.972Z,22.51
2022-09-28T13:22:32.424Z,22.45
2022-09-28T13:25:36.368Z,22.30
2022-09-28T13:28:40.170Z,22.09
2022-09-28T13:31:45.678Z,22.13
2022-09-28T13:34:50.545Z,22.24
2022-09-28T13:38:08.117Z,22.26
2022-09-28T13:41:14.893Z,22.32
2022-09-28T13:44:26.482Z,22.31
2022-09-28T13:47:44.060Z,22.23
2022-09-28T13:51:03.163Z,22.04
2022-09-28T13:54:21.798Z,22.08
2022-09-28T13:57:31.030Z,22.14
2022-09-28T14:00:38.142Z,22.22
2022-09-28T14:03:45.224Z,22.24
2022-09-28T14:06:54.836Z,22.07
2022-09-28T14:10:23.859Z,22.23
2022-09-28T14:13:44.967Z,22.20
2022-09-28T14:16:49.051Z,22.22
2022-09-28T14:19:53.464Z,22.10
2022-09-28T14:23:10.991Z,22.09
2022-09-28T14:26:31.588Z,22.13
2022-09-28T14:29:36.513Z,22.21
2022-09-28T14:32:43.248Z,22.18
2022-09-28T14:35:48.818Z,22.19
2022-09-28T14:39:09.246Z,22.21
2022-09-28T14:42:15.726Z,22.19
2022-09-28T14:45:35.946Z,22.23
2022-09-28T14:48:45.954Z,22.23
2022-09-28T14:52:06.796Z,22.23
2022-09-28T14:55:20.979Z,22.05
2022-09-28T14:58:25.152Z,22.06
2022-09-28T15:01:27.866Z,22.01
2022-09-28T15:04:32.025Z,22.01
2022-09-28T15:07:47.472Z,21.91
2022-09-28T15:10:51.540Z,22.01
2022-09-28T15:14:06.381Z,22.03
2022-09-28T15:17:10.837Z,21.86
2022-09-28T15:20:22.159Z,21.85
2022-09-28T15:23:26.732Z,21.72
2022-09-28T15:26:31.133Z,21.52
2022-09-28T15:29:34.101Z,21.68
2022-09-28T15:32:37.207Z,21.53
2022-09-28T15:35:40.697Z,21.66
2022-09-28T15:38:43.797Z,21.49
2022-09-28T15:41:47.329Z,21.52
2022-09-28T15:45:04.237Z,21.56
2022-09-28T15:48:20.633Z,21.32
2022-09-28T15:51:25.592Z,21.43
2022-09-28T15:54:32.144Z,21.45
2022-09-28T15:57:38.091Z,21.41
2022-09-28T16:00:41.545Z,21.42
2022-09-28T16:03:44.344Z,21.36
2022-09-28T16:07:05.216Z,21.47
2022-09-28T16:10:27.319Z,21.57
2022-09-28T16:13:31.551Z,21.55
2022-09-28T16:16:36.436Z,21.62
2022-09-28T16:19:39.387Z,21.55
2022-09-28T16:22:44.148Z,21.37
2022-09-28T16:25:51.809Z,21.30
2022-09-28T16:28:57.284Z,21.28
2022-09-28T16:32:22.847Z,21.25
2022-09-28T16:35:30.555Z,21.20
2022-09-28T16:38:39.239Z,21.22
2022-09-28T16:41:45.080Z,21.17
2022-09-28T16:44:50.485Z,21.08
2022-09-28T16:47:58.580Z,21.05
2022-09-28T16:51:06.375Z,21.19
2022-09-28T16:54:32.654Z,21.28
2022-09-28T16:57:40.698Z,21.33
2022-09-28T17:00:45.912Z,21.29
2022-09-28T17:03:54.261Z,21.25
2022-09-28T17:07:00.045Z,21.28
2022-09-28T17:10:05.204Z,21.22
2022-09-28T17:13:15.118Z,21.23
2022-09-28T17:16:28.259Z,21.26
2022-09-28T17:19:42.359Z,21.24
2022-09-28T17:22:46.134Z,21.25
2022-09-28T17:26:04.428Z,21.20
2022-09-28T17:29:12.660Z,21.15
2022-09-28T17:32:19.356Z,21.24
2022-09-28T17:35:25.539Z,21.16
2022-09-28T17:38:29.364Z,21.06
2022-09-28T17:41:35.966Z,21.04
2022-09-28T17:44:41.497Z,21.15
2022-09-28T17:47:44.982Z,20.99
2022-09-28T17:50:50.723Z,20.94
2022-09-28T17:53:56.776Z,20.79
2022-09-28T17:57:01.034Z,20.82
2022-09-28T18:00:08.173Z,20.95
2022-09-28T18:03:17.468Z,20.85
2022-09-28T18:06:23.643Z,20.97
2022-09-28T18:09:28.164Z,21.00
2022-09-28T18:12:32.816Z,20.99
2022-09-28T18:15:36.795Z,21.05
2022-09-28T18:18:42.009Z,21.08
2022-09-28T18:21:45.282Z,21.08
2022-09-28T18:24:48.342Z,21.11
2022-09-28T18:27:57.301Z,21.05
2022-09-28T18:31:00.124Z,21.02
2022-09-28T18:34:03.225Z,20.93
2022-09-28T18:37:06.818Z,21.01
2022-09-28T18:40:15.396Z,21.03
2022-09-28T18:43:20.911Z,21.02
2022-09-28T18:46:32.721Z,21.03
2022-09-28T18:49:37.025Z,20.98
2022-09-28T18:52:47.694Z,20.98
2022-09-28T18:56:01.349Z,20.97
2022-09-28T18:59:09.976Z,20.99
2022-09-28T19:02:16.744Z,20.97
2022-09-28T19:05:20.763Z,20.93
2022-09-28T19:08:27.508Z,20.77
2022-09-28T19:11:30.850Z,20.75
2022-09-28T19:14:35.295Z,20.79
2022-09-28T19:17:37.968Z,20.85
2022-09-28T19:20:40.956Z,20.74
2022-09-28T19:23:49.081Z,20.68
2022-09-28T19:26:53.633Z,20.71
2022-09-28T19:29:58.801Z,20.57
2022-09-28T19:33:04.355Z,20.72
2022-09-28T19:36:08.165Z,20.83
2022-09-28T19:39:14.437Z,20.75
2022-09-28T19:42:17.150Z,20.70
2022-09-28T19:45:21.254Z,20.68
2022-09-28T19:48:26.668Z,20.64
2022-09-28T19:51:29.934Z,20.60
2022-09-28T19:54:36.584Z,20.64
2022-09-28T19:57:39.449Z,20.65
2022-09-28T20:00:44.298Z,20.46
2022-09-28T20:03:47.181Z,20.24
2022-09-28T20:06:52.474Z,20.20
2022-09-28T20:09:55.176Z,20.09
2022-09-28T20:12:59.020Z,20.32
2022-09-28T20:16:07.197Z,20.24
2022-09-28T20:19:10.168Z,20.07
2022-09-28T20:22:12.810Z,19.89
2022-09-28T20:25:16.802Z,19.89
2022-09-28T20:28:19.552Z,19.87
2022-09-28T20:31:26.271Z,19.68
2022-09-28T20:34:29.005Z,19.81
2022-09-28T20:37:33.006Z,19.79
2022-09-28T20:40:36.605Z,19.64
2022-09-28T20:43:39.727Z,19.77
2022-09-28T20:46:44.378Z,19.78
2022-09-28T20:49:47.647Z,19.87
2022-09-28T20:52:50.342Z,19.65
2022-09-28T20:55:58.102Z,19.70
2022-09-28T20:59:00.819Z,19.70
2022-09-28T21:02:04.948Z,19.45
2022-09-28T21:05:08.146Z,19.40
2022-09-28T21:08:10.857Z,19.51
2022-09-28T21:11:13.980Z,19.42
2022-09-28T21:14:16.784Z,19.49
2022-09-28T21:17:20.833Z,19.49
2022-09-28T21:20:23.495Z,19.38
2022-09-28T21:23:26.245Z,19.47
2022-09-28T21:26:29.806Z,19.26
2022-09-28T21:29:32.445Z,19.45
2022-09-28T21:32:36.539Z,19.39
2022-09-28T21:35:39.649Z,19.45
2022-09-28T21:38:42.405Z,19.44
2022-09-28T21:41:45.438Z,19.35
2022-09-28T21:44:48.125Z,19.29
2022-09-28T21:47:53.849Z,19.46
2022-09-28T21:51:00.029Z,19.14
2022-09-28T21:54:02.788Z,19.15
2022-09-28T21:57:05.527Z,19.09
2022-09-28T22:00:09.091Z,19.16
2022-09-28T22:03:13.193Z,19.16
2022-09-28T22:06:16.265Z,18.99
2022-09-28T22:09:18.951Z,18.98
2022-09-28T22:12:21.634Z,19.00
2022-09-28T22:15:24.343Z,18.99
2022-09-28T22:18:30.585Z,19.10
2022-09-28T22:21:35.007Z,19.21
2022-09-28T22:24:37.746Z,19.19
2022-09-28T22:27:40.642Z,19.06
2022-09-28T22:30:43.497Z,19.15
2022-09-28T22:33:47.950Z,19.06
2022-09-28T22:36:50.690Z,19.11
2022-09-28T22:39:53.665Z,19.11
2022-09-28T22:42:56.404Z,19.37
2022-09-28T22:46:03.386Z,19.15
2022-09-28T22:49:07.519Z,19.26
2022-09-28T22:52:10.252Z,19.20
2022-09-28T22:55:13.928Z,18.96
2022-09-28T22:58:16.648Z,19.03
2022-09-28T23:01:21.020Z,18.96
2022-09-28T23:04:25.142Z,19.10
2022-09-28T23:07:27.889Z,19.08
2022-09-28T23:10:30.985Z,18.78
2022-09-28T23:13:33.755Z,19.12
2022-09-28T23:16:38.231Z,19.22
2022-09-28T23:19:42.354Z,18.97
2022-09-28T23:22:46.752Z,19.02
2022-09-28T23:25:49.457Z,18.79
2022-09-28T23:28:52.740Z,18.89
2022-09-28T23:31:55.384Z,18.76
2022-09-28T23:34:59.403Z,18.65
2022-09-28T23:38:02.109Z,18.88
2022-09-28T23:41:04.918Z,18.80
2022-09-28T23:44:07.886Z,18.67
2022-09-28T23:47:10.619Z,18.51
2022-09-28T23:50:14.739Z,18.60
2022-09-28T23:53:17.460Z,18.91
2022-09-28T23:56:20.169Z,18.84
2022-09-28T23:59:22.797Z,18.53
